Aérodrome :
LOGIN :

S'inscrire | Disclaimer

   EN    FR    IT 

 










Légende :    VFR   VFR Marginal   IFR   IFR Intensif   IFR Très Intensif
Visi : 
Plafond : 
>= 8 km
>= 3000ft
5 à 8 km
1000 à 3000 ft
1500m à 5 km
500 à 1000 ft
800 à 1500m
200 à 500 ft
< 800m
< 200 ft
Symboles :   Orages  Brouillard  Fortes neiges  Fortes précipitations  Vent > 20 kt
SIGMETs :   Divers  Orages  Givrage  Turbulence  Onde Orograph.  Cendres Volcan.







- Altitude de l'aérodrome : 609 ft
- Code IATA : BJZ


LEBZ - Badajoz

DERNIER METAR :
  • 211900Z 08008KT CAVOK 19/06 Q1007

METARs EXPIRÉS :
  • 211800Z 07008KT CAVOK 20/06 Q1007

TAF TAF LEBZ
Valide du 21 à 18h jusqu'au 22 à 18h UTC


211700Z 2118/2218 04006KT CAVOK TX22/2215Z TN11/2205Z
BECMG 2206/2208 25010KT
PROB40
TEMPO 2212/2218 25015G25KT
Pas de NOTAMs connus pour ce terrain.
2 SIGMETs publiés pour la FIR Madrid (LECM) :
 
Turbulence forte
LECM SIGMET 3 VALID 212010/220000 LEVA
LECM MADRID FIR/UIR SEV TURB FCST WI N4454 W00735 - N4442 W00555 - N4151 W00547 - N4159 W00805 - N4454 W00735 FL240/330 STNR NC=
Turbulence forte
LECM SIGMET 2 VALID 212005/212200 LEVA
LECM MADRID UIR SEV TURB OBS AT 2005Z WI N3957 W00440 - N3956 W00248 - N3741 W00315 - N3753 W00409 - N3957 W00440 FL300/350 STNR NC=



MET'MAP, la Météo Aéronautique d'un coup d'oeil ! - Copyright ORBIFLY Décembre 2007 - Disclaimer

ORBIFLY MET'MAP TEAM :

Programmation & Développement : Alexandra Zaïnal
Conception & Développement : Baudouin d'Aumeries
Co-Programmation & Développement : Marc-Olivier Méhu
Soutien technique & logistique : Manuel Goepfert

Contact : metmap@orbifly.com




SOURCES & CREDITS :

   NOAA